createdAt,value
2023-02-01T00:00:06.675Z,83.43
2023-02-01T00:03:14.024Z,87.90
2023-02-01T00:06:19.656Z,80.35
2023-02-01T00:09:25.111Z,86.28
2023-02-01T00:12:31.029Z,82.03
2023-02-01T00:15:36.400Z,79.95
2023-02-01T00:18:41.797Z,81.85
2023-02-01T00:21:47.212Z,83.93
2023-02-01T00:24:52.793Z,83.68
2023-02-01T00:28:00.199Z,89.57
2023-02-01T00:31:06.045Z,91.93
2023-02-01T00:34:14.700Z,86.32
2023-02-01T00:37:20.145Z,88.93
2023-02-01T00:40:27.475Z,81.88
2023-02-01T00:43:34.500Z,93.13
2023-02-01T00:46:40.317Z,87.63
2023-02-01T00:49:45.447Z,86.38
2023-02-01T00:52:50.904Z,87.53
2023-02-01T00:55:57.714Z,105.03
2023-02-01T00:59:03.559Z,91.40
2023-02-01T01:02:09.021Z,92.20
2023-02-01T01:05:14.833Z,91.70
2023-02-01T01:08:20.047Z,91.50
2023-02-01T01:11:28.749Z,93.78
2023-02-01T01:14:34.329Z,92.75
2023-02-01T01:17:39.725Z,108.13
2023-02-01T01:20:45.358Z,103.80
2023-02-01T01:23:50.857Z,99.95
2023-02-01T01:26:56.014Z,93.63
2023-02-01T01:30:01.052Z,103.05
2023-02-01T01:33:06.451Z,98.35
2023-02-01T01:36:13.523Z,91.05
2023-02-01T01:39:18.844Z,96.10
2023-02-01T01:42:24.369Z,97.13
2023-02-01T01:45:35.508Z,91.97
2023-02-01T01:48:41.229Z,82.53
2023-02-01T01:51:55.557Z,90.55
2023-02-01T01:55:01.069Z,94.32
2023-02-01T01:58:11.789Z,92.15
2023-02-01T02:01:18.052Z,94.75
2023-02-01T02:04:24.601Z,92.20
2023-02-01T02:07:33.350Z,98.30
2023-02-01T02:10:57.850Z,98.03
2023-02-01T02:14:06.857Z,96.10
2023-02-01T02:17:24.644Z,88.90
2023-02-01T02:20:39.016Z,91.43
2023-02-01T02:24:21.703Z,87.75
2023-02-01T02:27:36.177Z,92.72
2023-02-01T02:31:02.850Z,85.50
2023-02-01T02:34:17.408Z,87.38
2023-02-01T02:37:51.203Z,85.20
2023-02-01T02:41:53.976Z,84.28
2023-02-01T02:45:27.358Z,84.30
2023-02-01T02:48:40.149Z,91.30
2023-02-01T02:52:19.283Z,100.10
2023-02-01T02:55:28.310Z,90.53
2023-02-01T02:58:52.675Z,89.25
2023-02-01T03:02:16.780Z,88.55
2023-02-01T03:05:22.494Z,81.68
2023-02-01T03:08:31.119Z,74.97
2023-02-01T03:11:55.963Z,77.65
2023-02-01T03:15:13.758Z,81.53
2023-02-01T03:18:44.654Z,66.88
2023-02-01T03:25:13.762Z,81.72
2023-02-01T03:28:24.381Z,78.85
2023-02-01T03:31:30.444Z,75.75
2023-02-01T03:34:36.306Z,80.18
2023-02-01T03:37:42.001Z,89.75
2023-02-01T03:41:00.356Z,89.45
2023-02-01T03:44:32.317Z,89.10
2023-02-01T03:47:45.276Z,78.30
2023-02-01T03:50:56.899Z,81.97
2023-02-01T03:54:05.914Z,70.63
2023-02-01T03:57:16.206Z,83.40
2023-02-01T04:00:25.268Z,82.25
2023-02-01T04:03:31.403Z,82.68
2023-02-01T04:06:37.111Z,69.03
2023-02-01T04:09:44.347Z,79.25
2023-02-01T04:12:50.203Z,84.88
2023-02-01T04:15:55.756Z,80.20
2023-02-01T04:19:01.503Z,81.75
2023-02-01T04:22:06.767Z,70.28
2023-02-01T04:25:12.007Z,68.35
2023-02-01T04:28:17.142Z,69.60
2023-02-01T04:31:31.503Z,79.25
2023-02-01T04:34:37.178Z,77.60
2023-02-01T04:37:42.136Z,77.55
2023-02-01T04:40:49.373Z,74.70
2023-02-01T04:43:54.861Z,76.30
2023-02-01T04:47:00.152Z,72.45
2023-02-01T04:50:07.230Z,69.20
2023-02-01T04:53:13.772Z,75.45
2023-02-01T04:56:19.633Z,84.85
2023-02-01T04:59:25.883Z,77.70
2023-02-01T05:02:33.588Z,84.45
2023-02-01T05:05:39.196Z,75.03
2023-02-01T05:08:44.665Z,73.03
2023-02-01T05:12:08.595Z,81.47
2023-02-01T05:15:13.705Z,80.68
2023-02-01T05:18:18.869Z,80.82
2023-02-01T05:21:24.624Z,77.35
2023-02-01T05:24:30.477Z,66.13
2023-02-01T05:27:36.467Z,76.25
2023-02-01T05:30:42.521Z,72.35
2023-02-01T05:33:48.103Z,66.05
2023-02-01T05:36:54.147Z,75.50
2023-02-01T05:39:59.835Z,82.47
2023-02-01T05:43:05.242Z,71.80
2023-02-01T05:46:14.210Z,74.03
2023-02-01T05:49:19.472Z,81.63
2023-02-01T05:52:24.739Z,71.97
2023-02-01T05:55:29.816Z,75.35
2023-02-01T05:58:35.519Z,75.95
2023-02-01T06:01:41.176Z,76.78
2023-02-01T06:04:47.075Z,75.35
2023-02-01T06:07:52.508Z,74.57
2023-02-01T06:11:03.393Z,74.68
2023-02-01T06:14:09.162Z,78.57
2023-02-01T06:17:14.410Z,79.35
2023-02-01T06:20:19.931Z,74.88
2023-02-01T06:23:25.437Z,76.20
2023-02-01T06:26:31.101Z,73.95
2023-02-01T06:29:36.965Z,68.95
2023-02-01T06:32:42.385Z,81.30
2023-02-01T06:35:49.007Z,75.25
2023-02-01T06:38:55.171Z,85.80
2023-02-01T06:42:00.990Z,78.15
2023-02-01T06:45:08.448Z,77.07
2023-02-01T06:48:14.279Z,78.63
2023-02-01T06:51:26.271Z,78.72
2023-02-01T06:54:34.746Z,83.55
2023-02-01T06:57:40.420Z,70.55
2023-02-01T07:00:46.027Z,94.90
2023-02-01T07:03:52.395Z,80.65
2023-02-01T07:06:57.889Z,85.57
2023-02-01T07:10:03.520Z,172.30
2023-02-01T07:13:09.076Z,150.00
2023-02-01T07:16:17.397Z,154.55
2023-02-01T07:19:23.030Z,111.38
2023-02-01T07:22:29.228Z,112.07
2023-02-01T07:25:36.335Z,83.53
2023-02-01T07:28:42.316Z,76.15
2023-02-01T07:31:47.629Z,68.65
2023-02-01T07:34:52.878Z,69.20
2023-02-01T07:37:59.087Z,73.05
2023-02-01T07:41:06.637Z,65.97
2023-02-01T07:44:12.183Z,71.63
2023-02-01T07:47:17.951Z,76.07
2023-02-01T07:50:23.249Z,72.47
2023-02-01T07:53:31.035Z,67.50
2023-02-01T07:56:36.519Z,70.80
2023-02-01T08:00:02.230Z,71.18
2023-02-01T08:03:18.837Z,74.35
2023-02-01T08:06:26.137Z,82.47
2023-02-01T08:09:32.444Z,86.68
2023-02-01T08:12:38.904Z,85.10
2023-02-01T08:15:44.233Z,89.28
2023-02-01T08:18:49.537Z,78.85
2023-02-01T08:21:54.772Z,72.85
2023-02-01T08:25:02.566Z,65.20
2023-02-01T08:28:08.786Z,75.90
2023-02-01T08:31:17.150Z,76.38
2023-02-01T08:34:22.776Z,69.75
2023-02-01T08:37:28.301Z,71.63
2023-02-01T08:40:34.573Z,78.70
2023-02-01T08:43:40.730Z,76.32
2023-02-01T08:46:46.588Z,83.88
2023-02-01T08:49:52.922Z,74.57
2023-02-01T08:52:58.483Z,78.85
2023-02-01T08:56:04.817Z,81.60
2023-02-01T08:59:10.198Z,88.13
2023-02-01T09:02:17.678Z,84.05
2023-02-01T09:05:24.339Z,88.40
2023-02-01T09:08:30.095Z,82.22
2023-02-01T09:11:35.491Z,89.38
2023-02-01T09:14:40.990Z,88.03
2023-02-01T09:17:47.064Z,86.07
2023-02-01T09:20:53.069Z,85.80
2023-02-01T09:23:58.910Z,91.15
2023-02-01T09:27:04.900Z,95.88
2023-02-01T09:30:11.061Z,98.93
2023-02-01T09:33:18.889Z,94.40
2023-02-01T09:36:25.130Z,91.40
2023-02-01T09:39:31.644Z,105.15
2023-02-01T09:42:53.385Z,103.68
2023-02-01T09:46:29.448Z,111.03
2023-02-01T09:49:43.880Z,113.55
2023-02-01T09:53:20.548Z,105.20
2023-02-01T09:56:35.178Z,93.25
2023-02-01T09:59:46.417Z,97.22
2023-02-01T10:02:52.252Z,101.93
2023-02-01T10:06:22.267Z,106.40
2023-02-01T10:09:58.415Z,97.20
2023-02-01T10:13:32.945Z,96.90
2023-02-01T10:17:08.151Z,108.53
2023-02-01T10:20:51.014Z,103.70
2023-02-01T10:27:23.544Z,101.63
2023-02-01T10:30:41.037Z,104.60
2023-02-01T10:33:52.685Z,106.55
2023-02-01T10:37:24.834Z,99.60
2023-02-01T10:40:30.501Z,115.57
2023-02-01T10:43:36.689Z,102.93
2023-02-01T10:46:42.681Z,105.28
2023-02-01T10:49:53.684Z,96.60
2023-02-01T10:53:04.317Z,112.50
2023-02-01T10:56:12.902Z,116.47
2023-02-01T10:59:25.408Z,102.95
2023-02-01T11:02:34.778Z,110.13
2023-02-01T11:05:47.713Z,107.97
2023-02-01T11:08:56.595Z,104.30
2023-02-01T11:12:02.466Z,104.15
2023-02-01T11:15:24.179Z,92.35
2023-02-01T11:21:38.948Z,105.95
2023-02-01T11:24:47.930Z,108.57
2023-02-01T11:27:55.912Z,102.88
2023-02-01T11:31:06.378Z,103.30
2023-02-01T11:34:22.293Z,111.55
2023-02-01T11:37:35.908Z,110.03
2023-02-01T11:40:41.261Z,107.63
2023-02-01T11:44:18.875Z,111.80
2023-02-01T11:47:41.727Z,101.00
2023-02-01T11:51:06.927Z,107.85
2023-02-01T11:54:21.669Z,111.82
2023-02-01T11:57:54.336Z,107.85
2023-02-01T12:01:22.939Z,109.45
2023-02-01T12:04:40.352Z,112.43
2023-02-01T12:07:48.498Z,110.03
2023-02-01T12:11:21.216Z,106.95
2023-02-01T12:14:40.759Z,99.55
2023-02-01T12:18:02.888Z,103.57
2023-02-01T12:21:20.451Z,104.47
2023-02-01T12:24:51.892Z,101.93
2023-02-01T12:28:36.624Z,104.32
2023-02-01T12:32:05.924Z,100.78
2023-02-01T12:35:29.878Z,102.53
2023-02-01T12:39:13.685Z,102.95
2023-02-01T12:42:43.182Z,108.93
2023-02-01T12:46:04.210Z,102.85
2023-02-01T12:49:31.166Z,107.40
2023-02-01T12:52:49.155Z,97.80
2023-02-01T12:56:00.140Z,103.47
2023-02-01T12:59:14.770Z,103.70
2023-02-01T13:02:40.434Z,100.97
2023-02-01T13:05:56.361Z,108.57
2023-02-01T13:09:29.550Z,100.57
2023-02-01T13:12:41.603Z,100.70
2023-02-01T13:15:57.464Z,96.40
2023-02-01T13:19:55.099Z,101.30
2023-02-01T13:23:27.390Z,102.20
2023-02-01T13:26:32.790Z,94.75
2023-02-01T13:29:55.814Z,100.72
2023-02-01T13:33:53.813Z,96.40
2023-02-01T13:37:17.847Z,100.53
2023-02-01T13:40:38.605Z,97.60
2023-02-01T13:43:49.110Z,95.38
2023-02-01T13:46:58.608Z,95.85
2023-02-01T13:50:32.260Z,99.03
2023-02-01T13:53:41.043Z,93.53
2023-02-01T13:56:46.092Z,88.43
2023-02-01T13:59:53.640Z,95.93
2023-02-01T14:03:02.022Z,94.40
2023-02-01T14:06:29.557Z,92.30
2023-02-01T14:09:38.280Z,94.05
2023-02-01T14:12:48.195Z,99.78
2023-02-01T14:16:17.907Z,90.00
2023-02-01T14:19:33.396Z,87.70
2023-02-01T14:22:38.733Z,94.22
2023-02-01T14:25:45.973Z,87.72
2023-02-01T14:28:59.786Z,101.50
2023-02-01T14:32:26.977Z,91.78
2023-02-01T14:35:32.170Z,95.13
2023-02-01T14:38:39.993Z,85.57
2023-02-01T14:41:47.714Z,91.28
2023-02-01T14:45:17.419Z,99.68
2023-02-01T14:48:25.206Z,88.88
2023-02-01T14:51:32.695Z,92.93
2023-02-01T14:54:40.999Z,93.97
2023-02-01T14:57:50.188Z,88.93
2023-02-01T15:00:58.756Z,86.95
2023-02-01T15:04:12.817Z,85.93
2023-02-01T15:07:19.344Z,84.05
2023-02-01T15:10:25.149Z,91.53
2023-02-01T15:13:30.798Z,92.05
2023-02-01T15:16:44.012Z,74.85
2023-02-01T15:20:23.925Z,79.05
2023-02-01T15:23:29.914Z,76.22
2023-02-01T15:26:36.150Z,72.82
2023-02-01T15:29:41.346Z,72.03
2023-02-01T15:32:47.257Z,79.85
2023-02-01T15:36:09.747Z,77.43
2023-02-01T15:39:27.314Z,74.03
2023-02-01T15:42:32.895Z,83.18
2023-02-01T15:45:38.331Z,83.90
2023-02-01T15:48:55.462Z,84.57
2023-02-01T15:52:02.584Z,72.75
2023-02-01T15:55:20.341Z,80.30
2023-02-01T15:58:27.605Z,72.68
2023-02-01T16:01:39.790Z,81.95
2023-02-01T16:04:52.095Z,79.82
2023-02-01T16:08:11.807Z,77.57
2023-02-01T16:11:31.769Z,83.47
2023-02-01T16:14:36.951Z,80.68
2023-02-01T16:17:43.862Z,84.28
2023-02-01T16:20:49.790Z,83.60
2023-02-01T16:23:55.203Z,79.30
2023-02-01T16:27:00.660Z,87.07
2023-02-01T16:30:06.716Z,88.93
2023-02-01T16:33:19.251Z,77.78
2023-02-01T16:36:26.099Z,87.00
2023-02-01T16:39:34.577Z,83.15
2023-02-01T16:42:39.468Z,93.95
2023-02-01T16:45:49.135Z,77.97
2023-02-01T16:48:59.896Z,87.32
2023-02-01T16:52:05.579Z,77.67
2023-02-01T16:55:18.532Z,82.95
2023-02-01T16:58:26.019Z,90.75
2023-02-01T17:01:31.194Z,84.70
2023-02-01T17:04:37.025Z,75.40
2023-02-01T17:07:42.589Z,79.05
2023-02-01T17:10:47.795Z,79.00
2023-02-01T17:13:54.595Z,83.78
2023-02-01T17:17:01.069Z,83.88
2023-02-01T17:20:07.741Z,92.80
2023-02-01T17:23:13.127Z,101.03
2023-02-01T17:26:18.608Z,102.28
2023-02-01T17:29:24.853Z,105.38
2023-02-01T17:32:31.299Z,110.25
2023-02-01T17:35:36.703Z,115.57
2023-02-01T17:38:43.225Z,116.82
2023-02-01T17:41:49.631Z,108.25
2023-02-01T17:45:02.853Z,107.28
2023-02-01T17:48:08.754Z,105.97
2023-02-01T17:51:20.440Z,121.85
2023-02-01T17:54:26.633Z,108.18
2023-02-01T17:57:32.065Z,131.73
2023-02-01T18:00:38.912Z,137.35
2023-02-01T18:03:44.658Z,123.75
2023-02-01T18:06:50.321Z,126.38
2023-02-01T18:09:56.731Z,122.90
2023-02-01T18:13:05.020Z,126.38
2023-02-01T18:16:19.217Z,124.13
2023-02-01T18:19:25.241Z,124.22
2023-02-01T18:22:31.690Z,107.53
2023-02-01T18:25:38.881Z,115.13
2023-02-01T18:28:44.676Z,104.55
2023-02-01T18:31:51.238Z,113.30
2023-02-01T18:34:56.465Z,110.47
2023-02-01T18:38:01.575Z,114.75
2023-02-01T18:41:13.071Z,106.15
2023-02-01T18:44:19.176Z,104.05
2023-02-01T18:47:24.344Z,106.50
2023-02-01T18:50:32.115Z,110.50
2023-02-01T18:53:37.619Z,104.50
2023-02-01T18:56:43.872Z,106.35
2023-02-01T18:59:49.049Z,108.07
2023-02-01T19:02:54.390Z,111.18
2023-02-01T19:06:02.607Z,118.20
2023-02-01T19:09:08.303Z,104.63
2023-02-01T19:12:13.833Z,118.35
2023-02-01T19:15:19.742Z,116.30
2023-02-01T19:18:25.188Z,129.65
2023-02-01T19:21:30.580Z,117.45
2023-02-01T19:24:35.432Z,120.68
2023-02-01T19:27:40.586Z,117.35
2023-02-01T19:30:45.830Z,131.23
2023-02-01T19:33:51.074Z,115.00
2023-02-01T19:36:56.249Z,145.05
2023-02-01T19:40:01.479Z,121.35
2023-02-01T19:43:09.868Z,115.88
2023-02-01T19:46:15.409Z,122.30
2023-02-01T19:49:21.269Z,143.40
2023-02-01T19:52:27.382Z,134.93
2023-02-01T19:55:33.240Z,138.35
2023-02-01T19:58:38.543Z,137.60
2023-02-01T20:01:46.973Z,141.82
2023-02-01T20:04:52.591Z,132.13
2023-02-01T20:07:58.208Z,127.80
2023-02-01T20:11:06.530Z,142.30
2023-02-01T20:14:13.170Z,136.50
2023-02-01T20:17:18.641Z,139.52
2023-02-01T20:20:24.532Z,143.00
2023-02-01T20:23:29.908Z,138.68
2023-02-01T20:26:36.646Z,136.50
2023-02-01T20:29:42.164Z,145.40
2023-02-01T20:32:50.962Z,171.38
2023-02-01T20:35:56.834Z,150.35
2023-02-01T20:39:02.685Z,174.35
2023-02-01T20:42:08.402Z,190.60
2023-02-01T20:45:14.585Z,166.57
2023-02-01T20:48:20.283Z,153.13
2023-02-01T20:51:26.018Z,158.18
2023-02-01T20:54:31.571Z,145.57
2023-02-01T20:57:37.688Z,156.30
2023-02-01T21:00:42.900Z,162.55
2023-02-01T21:03:48.035Z,156.57
2023-02-01T21:06:58.379Z,154.02
2023-02-01T21:10:05.332Z,160.20
2023-02-01T21:13:11.387Z,159.68
2023-02-01T21:16:19.595Z,157.13
2023-02-01T21:19:26.391Z,156.82
2023-02-01T21:22:31.768Z,170.48
2023-02-01T21:25:43.698Z,149.07
2023-02-01T21:28:49.949Z,153.82
2023-02-01T21:31:55.214Z,154.13
2023-02-01T21:35:00.540Z,159.07
2023-02-01T21:38:06.309Z,150.20
2023-02-01T21:41:30.553Z,149.32
2023-02-01T21:44:36.208Z,147.35
2023-02-01T21:47:42.184Z,147.57
2023-02-01T21:50:47.530Z,140.27
2023-02-01T21:53:52.915Z,153.10
2023-02-01T21:56:58.623Z,148.30
2023-02-01T22:00:05.930Z,148.88
2023-02-01T22:03:12.201Z,145.25
2023-02-01T22:06:29.989Z,151.50
2023-02-01T22:09:35.165Z,151.15
2023-02-01T22:12:40.527Z,147.25
2023-02-01T22:15:45.817Z,146.75
2023-02-01T22:18:52.631Z,155.15
2023-02-01T22:21:58.081Z,143.85
2023-02-01T22:25:03.506Z,133.65
2023-02-01T22:28:31.859Z,130.70
2023-02-01T22:31:35.241Z,139.57
2023-02-01T22:34:41.069Z,147.05
2023-02-01T22:37:46.625Z,146.88
2023-02-01T22:40:56.318Z,137.88
2023-02-01T22:44:01.611Z,139.80
2023-02-01T22:47:07.090Z,137.98
2023-02-01T22:50:12.996Z,144.07
2023-02-01T22:53:20.122Z,145.93
2023-02-01T22:56:30.442Z,150.73
2023-02-01T22:59:35.772Z,149.23
2023-02-01T23:02:44.698Z,134.45
2023-02-01T23:05:49.954Z,134.20
2023-02-01T23:09:01.884Z,149.77
2023-02-01T23:12:07.056Z,132.43
2023-02-01T23:15:13.372Z,131.38
2023-02-01T23:18:18.739Z,134.80
2023-02-01T23:21:24.469Z,142.98
2023-02-01T23:24:29.786Z,138.90
2023-02-01T23:27:35.630Z,133.43
2023-02-01T23:30:40.733Z,129.02
2023-02-01T23:33:47.061Z,135.10
2023-02-01T23:36:52.151Z,139.13
2023-02-01T23:39:57.684Z,129.48
2023-02-01T23:43:21.285Z,131.02
2023-02-01T23:46:28.355Z,144.48
2023-02-01T23:49:33.875Z,150.55
2023-02-01T23:52:39.269Z,147.15
2023-02-01T23:55:44.317Z,146.20
2023-02-01T23:58:51.184Z,146.98
